sensor_id;sensor_type;location;lat;lon;timestamp;P1;durP1;ratioP1;P2;durP2;ratioP2
6499;SDS011;3283;52.330;9.772;2022-11-15T05:02:43;37.50;;;13.23;;
6499;SDS011;3283;52.330;9.772;2022-11-15T05:05:27;24.33;;;11.37;;
6499;SDS011;3283;52.330;9.772;2022-11-15T05:07:52;32.87;;;16.87;;
6499;SDS011;3283;52.330;9.772;2022-11-15T05:10:18;29.63;;;19.37;;
6499;SDS011;3283;52.330;9.772;2022-11-15T05:12:43;36.60;;;12.00;;
6499;SDS011;3283;52.330;9.772;2022-11-15T05:15:09;40.63;;;12.60;;
6499;SDS011;3283;52.330;9.772;2022-11-15T05:17:34;98.57;;;74.83;;
6499;SDS011;3283;52.330;9.772;2022-11-15T05:19:59;122.97;;;96.73;;
6499;SDS011;3283;52.330;9.772;2022-11-15T05:22:25;164.60;;;116.00;;
6499;SDS011;3283;52.330;9.772;2022-11-15T05:24:51;107.47;;;80.00;;
6499;SDS011;3283;52.330;9.772;2022-11-15T05:27:17;100.47;;;77.10;;
6499;SDS011;3283;52.330;9.772;2022-11-15T05:29:42;86.70;;;70.17;;
6499;SDS011;3283;52.330;9.772;2022-11-15T05:32:08;116.47;;;96.13;;
6499;SDS011;3283;52.330;9.772;2022-11-15T05:34:35;124.80;;;102.90;;
6499;SDS011;3283;52.330;9.772;2022-11-15T05:37:00;131.00;;;105.60;;
6499;SDS011;3283;52.330;9.772;2022-11-15T05:39:26;111.03;;;95.47;;
6499;SDS011;3283;52.330;9.772;2022-11-15T05:41:52;55.97;;;41.17;;
6499;SDS011;3283;52.330;9.772;2022-11-15T05:44:21;63.03;;;51.43;;
6499;SDS011;3283;52.330;9.772;2022-11-15T05:46:49;59.10;;;48.83;;
6499;SDS011;3283;52.330;9.772;2022-11-15T05:49:24;59.87;;;53.17;;
6499;SDS011;3283;52.330;9.772;2022-11-15T05:51:54;55.20;;;48.83;;
6499;SDS011;3283;52.330;9.772;2022-11-15T05:54:20;65.10;;;47.77;;
6499;SDS011;3283;52.330;9.772;2022-11-15T05:56:47;63.10;;;56.13;;
6499;SDS011;3283;52.330;9.772;2022-11-15T05:59:14;59.87;;;53.40;;
6499;SDS011;3283;52.330;9.772;2022-11-15T06:01:39;85.73;;;70.27;;
6499;SDS011;3283;52.330;9.772;2022-11-15T06:04:05;84.10;;;74.60;;
6499;SDS011;3283;52.330;9.772;2022-11-15T06:06:31;102.13;;;88.53;;
6499;SDS011;3283;52.330;9.772;2022-11-15T06:08:56;94.43;;;80.13;;
6499;SDS011;3283;52.330;9.772;2022-11-15T06:11:21;101.50;;;90.50;;
6499;SDS011;3283;52.330;9.772;2022-11-15T06:13:47;39.50;;;20.97;;
6499;SDS011;3283;52.330;9.772;2022-11-15T06:16:12;39.33;;;35.27;;
6499;SDS011;3283;52.330;9.772;2022-11-15T06:18:38;39.50;;;35.43;;
6499;SDS011;3283;52.330;9.772;2022-11-15T06:21:04;53.37;;;43.27;;
6499;SDS011;3283;52.330;9.772;2022-11-15T06:23:33;49.67;;;44.03;;
6499;SDS011;3283;52.330;9.772;2022-11-15T06:26:00;51.63;;;44.73;;
6499;SDS011;3283;52.330;9.772;2022-11-15T06:28:29;60.90;;;52.03;;
6499;SDS011;3283;52.330;9.772;2022-11-15T06:31:06;76.47;;;68.20;;
6499;SDS011;3283;52.330;9.772;2022-11-15T06:33:33;87.50;;;70.73;;
6499;SDS011;3283;52.330;9.772;2022-11-15T06:36:03;106.47;;;88.87;;
6499;SDS011;3283;52.330;9.772;2022-11-15T06:38:29;88.50;;;79.03;;
6499;SDS011;3283;52.330;9.772;2022-11-15T06:40:54;85.07;;;73.77;;
6499;SDS011;3283;52.330;9.772;2022-11-15T06:43:20;105.57;;;87.10;;
6499;SDS011;3283;52.330;9.772;2022-11-15T06:45:45;98.20;;;85.63;;
6499;SDS011;3283;52.330;9.772;2022-11-15T06:48:11;74.47;;;63.83;;
6499;SDS011;3283;52.330;9.772;2022-11-15T06:50:36;106.63;;;85.90;;
6499;SDS011;3283;52.330;9.772;2022-11-15T06:53:02;103.17;;;82.57;;
6499;SDS011;3283;52.330;9.772;2022-11-15T06:55:29;104.43;;;86.30;;
6499;SDS011;3283;52.330;9.772;2022-11-15T06:57:54;108.50;;;82.20;;
6499;SDS011;3283;52.330;9.772;2022-11-15T07:00:20;99.30;;;80.10;;
6499;SDS011;3283;52.330;9.772;2022-11-15T07:02:46;80.87;;;66.93;;
6499;SDS011;3283;52.330;9.772;2022-11-15T07:05:12;76.47;;;66.07;;
6499;SDS011;3283;52.330;9.772;2022-11-15T07:07:38;78.17;;;67.93;;
6499;SDS011;3283;52.330;9.772;2022-11-15T07:10:04;90.40;;;74.47;;
6499;SDS011;3283;52.330;9.772;2022-11-15T07:12:29;48.47;;;40.10;;
6499;SDS011;3283;52.330;9.772;2022-11-15T07:14:55;51.87;;;42.13;;
6499;SDS011;3283;52.330;9.772;2022-11-15T07:17:20;43.70;;;37.07;;
6499;SDS011;3283;52.330;9.772;2022-11-15T07:19:45;64.23;;;54.57;;
6499;SDS011;3283;52.330;9.772;2022-11-15T07:22:11;68.00;;;55.30;;
6499;SDS011;3283;52.330;9.772;2022-11-15T07:24:36;61.57;;;50.50;;
6499;SDS011;3283;52.330;9.772;2022-11-15T07:27:02;59.83;;;51.57;;
6499;SDS011;3283;52.330;9.772;2022-11-15T07:29:27;91.83;;;79.23;;
6499;SDS011;3283;52.330;9.772;2022-11-15T07:31:53;106.10;;;86.70;;
6499;SDS011;3283;52.330;9.772;2022-11-15T07:34:18;94.97;;;80.73;;
6499;SDS011;3283;52.330;9.772;2022-11-15T07:36:44;70.47;;;54.73;;
6499;SDS011;3283;52.330;9.772;2022-11-15T07:39:09;62.10;;;52.63;;
6499;SDS011;3283;52.330;9.772;2022-11-15T07:41:37;55.73;;;46.07;;
6499;SDS011;3283;52.330;9.772;2022-11-15T07:44:03;74.83;;;54.63;;
6499;SDS011;3283;52.330;9.772;2022-11-15T07:46:29;54.20;;;43.07;;
6499;SDS011;3283;52.330;9.772;2022-11-15T07:48:54;62.63;;;53.90;;
6499;SDS011;3283;52.330;9.772;2022-11-15T07:51:20;49.03;;;41.20;;
6499;SDS011;3283;52.330;9.772;2022-11-15T07:53:45;70.93;;;49.17;;
6499;SDS011;3283;52.330;9.772;2022-11-15T07:56:11;49.90;;;37.03;;
6499;SDS011;3283;52.330;9.772;2022-11-15T07:58:37;56.33;;;49.73;;
6499;SDS011;3283;52.330;9.772;2022-11-15T08:01:05;51.47;;;45.67;;
6499;SDS011;3283;52.330;9.772;2022-11-15T08:03:32;59.33;;;46.53;;
6499;SDS011;3283;52.330;9.772;2022-11-15T08:05:58;53.67;;;44.20;;
6499;SDS011;3283;52.330;9.772;2022-11-15T08:08:24;50.30;;;35.60;;
6499;SDS011;3283;52.330;9.772;2022-11-15T08:10:49;46.90;;;40.07;;
6499;SDS011;3283;52.330;9.772;2022-11-15T08:13:14;34.57;;;11.90;;
6499;SDS011;3283;52.330;9.772;2022-11-15T08:15:40;22.47;;;7.77;;
6499;SDS011;3283;52.330;9.772;2022-11-15T08:18:11;26.60;;;7.67;;
6499;SDS011;3283;52.330;9.772;2022-11-15T08:20:38;25.23;;;8.37;;
6499;SDS011;3283;52.330;9.772;2022-11-15T08:23:04;20.70;;;7.07;;
6499;SDS011;3283;52.330;9.772;2022-11-15T08:25:31;21.57;;;7.07;;
6499;SDS011;3283;52.330;9.772;2022-11-15T08:27:58;23.80;;;7.57;;
6499;SDS011;3283;52.330;9.772;2022-11-15T08:30:25;27.80;;;9.17;;
6499;SDS011;3283;52.330;9.772;2022-11-15T08:32:51;28.93;;;7.90;;
6499;SDS011;3283;52.330;9.772;2022-11-15T08:35:18;36.03;;;10.63;;
6499;SDS011;3283;52.330;9.772;2022-11-15T08:37:44;25.53;;;8.10;;
6499;SDS011;3283;52.330;9.772;2022-11-15T08:40:10;28.80;;;8.60;;
6499;SDS011;3283;52.330;9.772;2022-11-15T08:42:36;28.93;;;8.83;;
6499;SDS011;3283;52.330;9.772;2022-11-15T08:45:02;36.23;;;8.57;;
6499;SDS011;3283;52.330;9.772;2022-11-15T08:47:28;31.10;;;9.33;;
6499;SDS011;3283;52.330;9.772;2022-11-15T08:49:54;29.60;;;8.80;;
6499;SDS011;3283;52.330;9.772;2022-11-15T08:52:19;27.83;;;7.03;;
6499;SDS011;3283;52.330;9.772;2022-11-15T08:54:45;34.17;;;9.03;;
6499;SDS011;3283;52.330;9.772;2022-11-15T08:57:10;21.90;;;6.70;;
6499;SDS011;3283;52.330;9.772;2022-11-15T08:59:36;30.00;;;8.30;;
6499;SDS011;3283;52.330;9.772;2022-11-15T09:02:02;28.83;;;8.77;;
6499;SDS011;3283;52.330;9.772;2022-11-15T09:04:31;32.87;;;9.10;;
6499;SDS011;3283;52.330;9.772;2022-11-15T09:06:57;33.23;;;9.77;;
6499;SDS011;3283;52.330;9.772;2022-11-15T09:09:22;29.63;;;11.00;;
6499;SDS011;3283;52.330;9.772;2022-11-15T09:11:47;38.37;;;10.47;;
6499;SDS011;3283;52.330;9.772;2022-11-15T09:14:14;34.30;;;11.73;;
6499;SDS011;3283;52.330;9.772;2022-11-15T09:16:39;35.77;;;11.23;;
6499;SDS011;3283;52.330;9.772;2022-11-15T09:19:05;31.00;;;12.10;;
6499;SDS011;3283;52.330;9.772;2022-11-15T09:21:30;35.07;;;11.93;;
6499;SDS011;3283;52.330;9.772;2022-11-15T09:23:58;44.60;;;17.53;;
6499;SDS011;3283;52.330;9.772;2022-11-15T09:26:24;23.73;;;12.20;;
6499;SDS011;3283;52.330;9.772;2022-11-15T09:28:50;33.07;;;13.90;;
6499;SDS011;3283;52.330;9.772;2022-11-15T09:31:15;26.47;;;14.50;;
6499;SDS011;3283;52.330;9.772;2022-11-15T09:33:44;41.60;;;27.53;;
6499;SDS011;3283;52.330;9.772;2022-11-15T09:36:10;71.90;;;64.73;;
6499;SDS011;3283;52.330;9.772;2022-11-15T09:38:36;41.33;;;32.93;;
6499;SDS011;3283;52.330;9.772;2022-11-15T09:49:18;81.57;;;73.23;;
6499;SDS011;3283;52.330;9.772;2022-11-15T09:51:45;76.23;;;65.97;;
6499;SDS011;3283;52.330;9.772;2022-11-15T09:56:56;74.97;;;65.67;;
6499;SDS011;3283;52.330;9.772;2022-11-15T10:02:24;75.57;;;68.07;;
6499;SDS011;3283;52.330;9.772;2022-11-15T10:05:16;63.10;;;53.20;;
6499;SDS011;3283;52.330;9.772;2022-11-15T10:07:51;71.17;;;63.47;;
6499;SDS011;3283;52.330;9.772;2022-11-15T10:10:36;64.47;;;56.80;;
6499;SDS011;3283;52.330;9.772;2022-11-15T10:13:14;60.23;;;51.03;;
6499;SDS011;3283;52.330;9.772;2022-11-15T10:15:45;60.80;;;54.23;;
6499;SDS011;3283;52.330;9.772;2022-11-15T10:18:17;63.80;;;56.90;;
6499;SDS011;3283;52.330;9.772;2022-11-15T10:20:58;55.43;;;47.40;;
6499;SDS011;3283;52.330;9.772;2022-11-15T10:23:27;54.93;;;47.77;;
6499;SDS011;3283;52.330;9.772;2022-11-15T10:25:56;70.87;;;54.50;;
6499;SDS011;3283;52.330;9.772;2022-11-15T10:28:28;58.93;;;53.63;;
6499;SDS011;3283;52.330;9.772;2022-11-15T10:30:56;43.83;;;26.43;;
6499;SDS011;3283;52.330;9.772;2022-11-15T10:38:33;41.20;;;23.70;;
6499;SDS011;3283;52.330;9.772;2022-11-15T10:41:06;27.50;;;11.57;;
6499;SDS011;3283;52.330;9.772;2022-11-15T10:43:32;41.23;;;22.23;;
6499;SDS011;3283;52.330;9.772;2022-11-15T10:45:58;33.13;;;20.20;;
6499;SDS011;3283;52.330;9.772;2022-11-15T10:48:44;38.87;;;23.50;;
6499;SDS011;3283;52.330;9.772;2022-11-15T10:51:19;34.53;;;17.10;;
6499;SDS011;3283;52.330;9.772;2022-11-15T10:53:53;49.90;;;33.37;;
6499;SDS011;3283;52.330;9.772;2022-11-15T10:56:20;53.10;;;38.87;;
6499;SDS011;3283;52.330;9.772;2022-11-15T10:58:51;40.93;;;35.70;;
6499;SDS011;3283;52.330;9.772;2022-11-15T11:01:19;57.87;;;51.80;;
6499;SDS011;3283;52.330;9.772;2022-11-15T11:04:00;57.77;;;51.87;;
6499;SDS011;3283;52.330;9.772;2022-11-15T11:06:28;45.87;;;41.33;;
6499;SDS011;3283;52.330;9.772;2022-11-15T11:11:23;74.47;;;66.67;;
6499;SDS011;3283;52.330;9.772;2022-11-15T11:13:49;80.50;;;67.63;;
6499;SDS011;3283;52.330;9.772;2022-11-15T11:21:46;65.97;;;59.40;;
6499;SDS011;3283;52.330;9.772;2022-11-15T11:24:20;63.43;;;56.87;;
6499;SDS011;3283;52.330;9.772;2022-11-15T11:35:01;90.47;;;81.67;;
6499;SDS011;3283;52.330;9.772;2022-11-15T11:53:47;113.63;;;102.67;;
6499;SDS011;3283;52.330;9.772;2022-11-15T11:56:34;69.30;;;63.53;;
6499;SDS011;3283;52.330;9.772;2022-11-15T11:59:22;76.60;;;69.53;;
6499;SDS011;3283;52.330;9.772;2022-11-15T12:01:49;51.30;;;32.57;;
6499;SDS011;3283;52.330;9.772;2022-11-15T12:04:23;82.60;;;74.63;;
6499;SDS011;3283;52.330;9.772;2022-11-15T12:06:56;102.90;;;93.70;;
6499;SDS011;3283;52.330;9.772;2022-11-15T12:12:15;116.53;;;104.40;;
6499;SDS011;3283;52.330;9.772;2022-11-15T12:14:50;127.47;;;114.60;;
6499;SDS011;3283;52.330;9.772;2022-11-15T12:17:22;88.03;;;80.00;;
6499;SDS011;3283;52.330;9.772;2022-11-15T12:19:51;64.90;;;58.47;;
6499;SDS011;3283;52.330;9.772;2022-11-15T12:22:28;67.87;;;61.10;;
6499;SDS011;3283;52.330;9.772;2022-11-15T12:25:14;83.90;;;76.20;;
6499;SDS011;3283;52.330;9.772;2022-11-15T12:28:06;87.53;;;78.97;;
6499;SDS011;3283;52.330;9.772;2022-11-15T12:36:05;100.00;;;91.00;;
6499;SDS011;3283;52.330;9.772;2022-11-15T12:39:02;92.70;;;83.33;;
6499;SDS011;3283;52.330;9.772;2022-11-15T12:41:38;131.03;;;117.37;;
6499;SDS011;3283;52.330;9.772;2022-11-15T12:44:10;119.50;;;107.30;;
6499;SDS011;3283;52.330;9.772;2022-11-15T12:49:10;147.57;;;133.00;;
6499;SDS011;3283;52.330;9.772;2022-11-15T12:57:15;134.97;;;121.77;;
6499;SDS011;3283;52.330;9.772;2022-11-15T13:04:53;95.70;;;84.03;;
6499;SDS011;3283;52.330;9.772;2022-11-15T13:17:50;48.50;;;37.93;;
6499;SDS011;3283;52.330;9.772;2022-11-15T13:28:29;55.77;;;49.90;;
6499;SDS011;3283;52.330;9.772;2022-11-15T13:30:56;50.83;;;45.50;;
6499;SDS011;3283;52.330;9.772;2022-11-15T13:33:27;52.17;;;46.90;;
6499;SDS011;3283;52.330;9.772;2022-11-15T13:35:57;45.87;;;40.93;;
6499;SDS011;3283;52.330;9.772;2022-11-15T13:38:32;46.77;;;41.73;;
6499;SDS011;3283;52.330;9.772;2022-11-15T13:41:00;45.67;;;39.20;;
6499;SDS011;3283;52.330;9.772;2022-11-15T13:43:46;74.27;;;42.37;;
6499;SDS011;3283;52.330;9.772;2022-11-15T13:46:18;47.57;;;37.20;;
6499;SDS011;3283;52.330;9.772;2022-11-15T13:48:46;39.83;;;22.13;;
6499;SDS011;3283;52.330;9.772;2022-11-15T13:56:33;33.90;;;25.53;;
6499;SDS011;3283;52.330;9.772;2022-11-15T13:59:01;37.63;;;27.73;;
6499;SDS011;3283;52.330;9.772;2022-11-15T14:01:34;39.67;;;30.53;;
6499;SDS011;3283;52.330;9.772;2022-11-15T14:04:00;50.43;;;44.87;;
6499;SDS011;3283;52.330;9.772;2022-11-15T14:06:27;58.17;;;51.97;;
6499;SDS011;3283;52.330;9.772;2022-11-15T14:08:58;55.80;;;47.37;;
6499;SDS011;3283;52.330;9.772;2022-11-15T14:11:24;56.73;;;50.43;;
6499;SDS011;3283;52.330;9.772;2022-11-15T14:18:59;88.10;;;78.93;;
6499;SDS011;3283;52.330;9.772;2022-11-15T14:21:25;66.90;;;60.27;;
6499;SDS011;3283;52.330;9.772;2022-11-15T14:23:50;79.73;;;59.90;;
6499;SDS011;3283;52.330;9.772;2022-11-15T14:26:26;104.60;;;94.00;;
6499;SDS011;3283;52.330;9.772;2022-11-15T14:28:54;89.10;;;80.07;;
6499;SDS011;3283;52.330;9.772;2022-11-15T14:31:20;105.70;;;95.10;;
6499;SDS011;3283;52.330;9.772;2022-11-15T14:33:46;85.37;;;75.90;;
6499;SDS011;3283;52.330;9.772;2022-11-15T14:36:16;88.40;;;77.90;;
6499;SDS011;3283;52.330;9.772;2022-11-15T14:38:43;100.13;;;89.97;;
6499;SDS011;3283;52.330;9.772;2022-11-15T14:43:43;110.33;;;98.83;;
6499;SDS011;3283;52.330;9.772;2022-11-15T14:46:09;110.63;;;98.83;;
6499;SDS011;3283;52.330;9.772;2022-11-15T14:48:34;83.70;;;75.47;;
6499;SDS011;3283;52.330;9.772;2022-11-15T14:51:00;63.03;;;52.03;;
6499;SDS011;3283;52.330;9.772;2022-11-15T14:53:25;57.00;;;50.07;;
6499;SDS011;3283;52.330;9.772;2022-11-15T14:55:50;54.10;;;48.37;;
6499;SDS011;3283;52.330;9.772;2022-11-15T14:58:16;51.97;;;43.20;;
6499;SDS011;3283;52.330;9.772;2022-11-15T15:00:41;58.83;;;52.90;;
6499;SDS011;3283;52.330;9.772;2022-11-15T15:03:07;64.47;;;57.77;;
6499;SDS011;3283;52.330;9.772;2022-11-15T15:05:34;83.27;;;74.47;;
6499;SDS011;3283;52.330;9.772;2022-11-15T15:08:02;83.60;;;75.73;;
6499;SDS011;3283;52.330;9.772;2022-11-15T15:10:31;85.30;;;77.37;;
6499;SDS011;3283;52.330;9.772;2022-11-15T15:12:58;80.90;;;73.13;;
6499;SDS011;3283;52.330;9.772;2022-11-15T15:15:25;86.17;;;77.03;;
6499;SDS011;3283;52.330;9.772;2022-11-15T15:17:52;97.10;;;87.90;;
6499;SDS011;3283;52.330;9.772;2022-11-15T15:20:17;96.13;;;87.03;;
6499;SDS011;3283;52.330;9.772;2022-11-15T15:22:43;96.57;;;86.63;;
6499;SDS011;3283;52.330;9.772;2022-11-15T15:25:20;112.47;;;100.73;;
6499;SDS011;3283;52.330;9.772;2022-11-15T15:27:45;110.50;;;98.67;;
6499;SDS011;3283;52.330;9.772;2022-11-15T15:30:11;121.47;;;109.17;;
6499;SDS011;3283;52.330;9.772;2022-11-15T15:32:37;122.30;;;110.23;;
6499;SDS011;3283;52.330;9.772;2022-11-15T15:35:02;126.03;;;113.67;;
6499;SDS011;3283;52.330;9.772;2022-11-15T15:37:28;123.00;;;111.40;;
6499;SDS011;3283;52.330;9.772;2022-11-15T15:39:55;122.67;;;110.87;;
6499;SDS011;3283;52.330;9.772;2022-11-15T15:42:21;126.40;;;114.07;;
6499;SDS011;3283;52.330;9.772;2022-11-15T15:44:48;124.07;;;111.47;;
6499;SDS011;3283;52.330;9.772;2022-11-15T15:47:15;127.70;;;115.30;;
6499;SDS011;3283;52.330;9.772;2022-11-15T15:49:50;140.57;;;126.77;;
6499;SDS011;3283;52.330;9.772;2022-11-15T15:52:16;133.67;;;120.20;;
6499;SDS011;3283;52.330;9.772;2022-11-15T15:54:42;147.17;;;131.93;;
6499;SDS011;3283;52.330;9.772;2022-11-15T15:57:08;133.83;;;119.60;;
6499;SDS011;3283;52.330;9.772;2022-11-15T15:59:37;144.40;;;129.00;;
6499;SDS011;3283;52.330;9.772;2022-11-15T16:02:02;141.97;;;126.80;;
6499;SDS011;3283;52.330;9.772;2022-11-15T16:04:28;137.23;;;122.80;;
6499;SDS011;3283;52.330;9.772;2022-11-15T16:06:57;133.87;;;120.07;;
6499;SDS011;3283;52.330;9.772;2022-11-15T16:09:24;132.77;;;118.90;;
6499;SDS011;3283;52.330;9.772;2022-11-15T16:12:08;150.97;;;129.07;;
6499;SDS011;3283;52.330;9.772;2022-11-15T16:14:34;146.00;;;131.70;;
6499;SDS011;3283;52.330;9.772;2022-11-15T16:16:59;170.40;;;154.07;;
6499;SDS011;3283;52.330;9.772;2022-11-15T16:19:25;155.40;;;138.80;;
6499;SDS011;3283;52.330;9.772;2022-11-15T16:21:50;156.87;;;139.80;;
6499;SDS011;3283;52.330;9.772;2022-11-15T16:24:17;162.97;;;144.07;;
6499;SDS011;3283;52.330;9.772;2022-11-15T16:26:42;165.90;;;145.17;;
6499;SDS011;3283;52.330;9.772;2022-11-15T16:29:09;169.97;;;148.03;;
6499;SDS011;3283;52.330;9.772;2022-11-15T16:31:35;220.73;;;162.17;;
6499;SDS011;3283;52.330;9.772;2022-11-15T16:34:00;167.70;;;140.33;;
6499;SDS011;3283;52.330;9.772;2022-11-15T16:36:26;182.27;;;153.00;;
6499;SDS011;3283;52.330;9.772;2022-11-15T16:38:54;182.83;;;162.80;;
6499;SDS011;3283;52.330;9.772;2022-11-15T16:41:19;196.23;;;168.37;;
6499;SDS011;3283;52.330;9.772;2022-11-15T16:43:45;182.37;;;154.30;;
6499;SDS011;3283;52.330;9.772;2022-11-15T16:46:20;185.20;;;164.97;;
6499;SDS011;3283;52.330;9.772;2022-11-15T16:48:48;211.20;;;173.10;;
6499;SDS011;3283;52.330;9.772;2022-11-15T16:51:14;170.67;;;150.57;;
6499;SDS011;3283;52.330;9.772;2022-11-15T16:53:40;180.60;;;159.93;;
6499;SDS011;3283;52.330;9.772;2022-11-15T16:58:44;178.27;;;156.73;;
6499;SDS011;3283;52.330;9.772;2022-11-15T17:01:15;162.07;;;144.07;;
6499;SDS011;3283;52.330;9.772;2022-11-15T17:03:46;193.63;;;171.33;;
6499;SDS011;3283;52.330;9.772;2022-11-15T17:06:12;181.30;;;158.50;;
6499;SDS011;3283;52.330;9.772;2022-11-15T17:08:39;174.37;;;148.37;;
6499;SDS011;3283;52.330;9.772;2022-11-15T17:11:05;172.40;;;148.23;;
6499;SDS011;3283;52.330;9.772;2022-11-15T17:13:31;169.30;;;148.37;;
6499;SDS011;3283;52.330;9.772;2022-11-15T17:16:04;168.23;;;143.40;;
6499;SDS011;3283;52.330;9.772;2022-11-15T17:18:38;176.03;;;150.27;;
6499;SDS011;3283;52.330;9.772;2022-11-15T17:23:32;153.10;;;134.83;;
6499;SDS011;3283;52.330;9.772;2022-11-15T17:26:02;149.30;;;131.77;;
6499;SDS011;3283;52.330;9.772;2022-11-15T17:28:30;173.50;;;135.53;;
6499;SDS011;3283;52.330;9.772;2022-11-15T17:30:58;153.00;;;131.03;;
6499;SDS011;3283;52.330;9.772;2022-11-15T17:33:24;164.27;;;130.20;;
6499;SDS011;3283;52.330;9.772;2022-11-15T17:35:57;153.30;;;116.90;;
6499;SDS011;3283;52.330;9.772;2022-11-15T17:38:23;158.63;;;125.17;;
6499;SDS011;3283;52.330;9.772;2022-11-15T17:43:29;165.60;;;126.60;;
6499;SDS011;3283;52.330;9.772;2022-11-15T17:45:56;173.13;;;136.07;;
6499;SDS011;3283;52.330;9.772;2022-11-15T17:48:22;102.40;;;70.73;;
6499;SDS011;3283;52.330;9.772;2022-11-15T17:50:58;36.53;;;11.80;;
6499;SDS011;3283;52.330;9.772;2022-11-15T17:53:25;27.00;;;9.60;;
6499;SDS011;3283;52.330;9.772;2022-11-15T17:55:51;31.20;;;11.37;;
6499;SDS011;3283;52.330;9.772;2022-11-15T17:58:17;31.83;;;10.70;;
6499;SDS011;3283;52.330;9.772;2022-11-15T18:00:47;35.10;;;11.90;;
6499;SDS011;3283;52.330;9.772;2022-11-15T18:03:13;42.50;;;12.87;;
6499;SDS011;3283;52.330;9.772;2022-11-15T18:05:39;35.63;;;10.90;;
6499;SDS011;3283;52.330;9.772;2022-11-15T18:08:08;39.90;;;11.30;;
6499;SDS011;3283;52.330;9.772;2022-11-15T18:10:34;33.37;;;10.07;;
6499;SDS011;3283;52.330;9.772;2022-11-15T18:13:00;35.03;;;10.10;;
6499;SDS011;3283;52.330;9.772;2022-11-15T18:15:25;38.67;;;12.13;;
6499;SDS011;3283;52.330;9.772;2022-11-15T18:17:50;39.40;;;12.50;;
6499;SDS011;3283;52.330;9.772;2022-11-15T18:20:16;31.73;;;11.00;;
6499;SDS011;3283;52.330;9.772;2022-11-15T18:22:42;33.90;;;11.43;;
6499;SDS011;3283;52.330;9.772;2022-11-15T18:25:07;27.10;;;9.90;;
6499;SDS011;3283;52.330;9.772;2022-11-15T18:27:33;32.77;;;11.10;;
6499;SDS011;3283;52.330;9.772;2022-11-15T18:29:58;27.10;;;9.70;;
6499;SDS011;3283;52.330;9.772;2022-11-15T18:32:23;38.00;;;11.67;;
6499;SDS011;3283;52.330;9.772;2022-11-15T18:34:49;37.63;;;12.90;;
6499;SDS011;3283;52.330;9.772;2022-11-15T18:37:14;35.07;;;11.60;;
6499;SDS011;3283;52.330;9.772;2022-11-15T18:39:40;32.70;;;11.70;;
6499;SDS011;3283;52.330;9.772;2022-11-15T18:42:05;27.20;;;10.73;;
6499;SDS011;3283;52.330;9.772;2022-11-15T18:44:31;36.80;;;12.47;;
6499;SDS011;3283;52.330;9.772;2022-11-15T18:46:56;40.27;;;14.80;;
6499;SDS011;3283;52.330;9.772;2022-11-15T18:49:22;28.70;;;13.07;;
6499;SDS011;3283;52.330;9.772;2022-11-15T18:51:48;43.40;;;16.43;;
6499;SDS011;3283;52.330;9.772;2022-11-15T18:54:14;41.07;;;14.53;;
6499;SDS011;3283;52.330;9.772;2022-11-15T18:56:41;31.73;;;13.53;;
6499;SDS011;3283;52.330;9.772;2022-11-15T18:59:10;36.53;;;14.33;;
6499;SDS011;3283;52.330;9.772;2022-11-15T19:01:37;35.60;;;13.80;;
6499;SDS011;3283;52.330;9.772;2022-11-15T19:06:37;37.40;;;16.47;;
6499;SDS011;3283;52.330;9.772;2022-11-15T19:09:05;44.43;;;15.10;;
6499;SDS011;3283;52.330;9.772;2022-11-15T19:11:32;42.60;;;18.37;;
6499;SDS011;3283;52.330;9.772;2022-11-15T19:14:03;41.83;;;15.57;;
6499;SDS011;3283;52.330;9.772;2022-11-15T19:16:34;35.67;;;14.77;;
6499;SDS011;3283;52.330;9.772;2022-11-15T19:19:03;43.33;;;17.53;;
6499;SDS011;3283;52.330;9.772;2022-11-15T19:21:31;34.07;;;15.53;;
6499;SDS011;3283;52.330;9.772;2022-11-15T19:23:57;50.00;;;18.70;;
6499;SDS011;3283;52.330;9.772;2022-11-15T19:26:24;36.60;;;14.53;;
6499;SDS011;3283;52.330;9.772;2022-11-15T19:28:52;39.13;;;13.10;;
6499;SDS011;3283;52.330;9.772;2022-11-15T19:31:21;40.00;;;14.77;;
6499;SDS011;3283;52.330;9.772;2022-11-15T19:33:48;40.40;;;15.37;;
6499;SDS011;3283;52.330;9.772;2022-11-15T19:36:15;33.50;;;12.67;;
6499;SDS011;3283;52.330;9.772;2022-11-15T19:38:42;57.43;;;16.70;;
6499;SDS011;3283;52.330;9.772;2022-11-15T19:41:09;27.53;;;14.10;;
6499;SDS011;3283;52.330;9.772;2022-11-15T19:43:36;37.77;;;14.90;;
6499;SDS011;3283;52.330;9.772;2022-11-15T19:46:03;31.33;;;14.73;;
6499;SDS011;3283;52.330;9.772;2022-11-15T19:48:30;34.27;;;9.80;;
6499;SDS011;3283;52.330;9.772;2022-11-15T19:51:00;57.30;;;16.73;;
6499;SDS011;3283;52.330;9.772;2022-11-15T19:53:27;31.27;;;12.47;;
6499;SDS011;3283;52.330;9.772;2022-11-15T19:55:54;38.63;;;15.07;;
6499;SDS011;3283;52.330;9.772;2022-11-15T19:58:19;34.90;;;15.83;;
6499;SDS011;3283;52.330;9.772;2022-11-15T20:00:45;40.83;;;15.60;;
6499;SDS011;3283;52.330;9.772;2022-11-15T20:03:11;43.40;;;15.90;;
6499;SDS011;3283;52.330;9.772;2022-11-15T20:05:36;36.00;;;14.60;;
6499;SDS011;3283;52.330;9.772;2022-11-15T20:08:02;37.93;;;16.47;;
6499;SDS011;3283;52.330;9.772;2022-11-15T20:10:27;39.50;;;16.70;;
6499;SDS011;3283;52.330;9.772;2022-11-15T20:12:53;38.33;;;15.40;;
6499;SDS011;3283;52.330;9.772;2022-11-15T20:15:18;32.83;;;12.60;;
6499;SDS011;3283;52.330;9.772;2022-11-15T20:17:44;35.27;;;14.17;;
6499;SDS011;3283;52.330;9.772;2022-11-15T20:20:10;34.90;;;15.30;;
6499;SDS011;3283;52.330;9.772;2022-11-15T20:22:36;27.20;;;13.43;;
6499;SDS011;3283;52.330;9.772;2022-11-15T20:25:01;35.73;;;14.30;;
6499;SDS011;3283;52.330;9.772;2022-11-15T20:27:27;37.23;;;14.60;;
6499;SDS011;3283;52.330;9.772;2022-11-15T20:29:53;37.60;;;15.07;;
6499;SDS011;3283;52.330;9.772;2022-11-15T20:32:18;53.93;;;17.57;;
6499;SDS011;3283;52.330;9.772;2022-11-15T20:34:44;46.20;;;16.73;;
6499;SDS011;3283;52.330;9.772;2022-11-15T20:37:11;39.57;;;17.30;;
6499;SDS011;3283;52.330;9.772;2022-11-15T20:39:36;43.73;;;17.30;;
6499;SDS011;3283;52.330;9.772;2022-11-15T20:42:03;35.83;;;18.67;;
6499;SDS011;3283;52.330;9.772;2022-11-15T20:44:29;43.70;;;19.87;;
6499;SDS011;3283;52.330;9.772;2022-11-15T20:46:54;36.63;;;17.07;;
6499;SDS011;3283;52.330;9.772;2022-11-15T20:49:20;39.40;;;22.63;;
6499;SDS011;3283;52.330;9.772;2022-11-15T20:51:45;48.33;;;23.37;;
6499;SDS011;3283;52.330;9.772;2022-11-15T20:54:11;39.07;;;17.80;;
6499;SDS011;3283;52.330;9.772;2022-11-15T20:56:36;43.17;;;16.33;;
6499;SDS011;3283;52.330;9.772;2022-11-15T20:59:02;49.20;;;18.83;;
6499;SDS011;3283;52.330;9.772;2022-11-15T21:01:27;39.80;;;17.37;;
6499;SDS011;3283;52.330;9.772;2022-11-15T21:03:53;51.03;;;15.43;;
6499;SDS011;3283;52.330;9.772;2022-11-15T21:06:19;39.07;;;14.67;;
6499;SDS011;3283;52.330;9.772;2022-11-15T21:08:46;30.90;;;12.77;;
6499;SDS011;3283;52.330;9.772;2022-11-15T21:11:31;36.43;;;16.00;;
6499;SDS011;3283;52.330;9.772;2022-11-15T21:14:14;28.77;;;12.20;;
6499;SDS011;3283;52.330;9.772;2022-11-15T21:16:40;34.70;;;15.10;;
6499;SDS011;3283;52.330;9.772;2022-11-15T21:19:05;49.83;;;18.40;;
6499;SDS011;3283;52.330;9.772;2022-11-15T21:21:31;45.70;;;17.80;;
6499;SDS011;3283;52.330;9.772;2022-11-15T21:23:56;49.97;;;17.97;;
6499;SDS011;3283;52.330;9.772;2022-11-15T21:26:22;30.80;;;14.33;;
6499;SDS011;3283;52.330;9.772;2022-11-15T21:28:47;38.13;;;15.97;;
6499;SDS011;3283;52.330;9.772;2022-11-15T21:31:13;40.83;;;15.10;;
6499;SDS011;3283;52.330;9.772;2022-11-15T21:33:38;35.00;;;15.10;;
6499;SDS011;3283;52.330;9.772;2022-11-15T21:36:04;31.33;;;13.33;;
6499;SDS011;3283;52.330;9.772;2022-11-15T21:38:30;32.37;;;14.47;;
6499;SDS011;3283;52.330;9.772;2022-11-15T21:40:55;25.77;;;10.73;;
6499;SDS011;3283;52.330;9.772;2022-11-15T21:43:21;33.33;;;14.90;;